Time;durP1;ratioP1;P1;durP2;ratioP2;P2;SDS_P1;SDS_P2;PMS_P1;PMS_P2;Temp;Humidity;BMP_temperature;BMP_pressure;BME280_temperature;BME280_humidity;BME280_pressure;Samples;Min_cycle;Max_cycle;Signal;HPM_P1;HPM_P2
2021/05/04 00:02:07;;;;;;;2.90;2.30;;;;;;;6.67;61.65;99472.38;1787882;80;21125;-62
2021/05/04 00:04:36;;;;;;;2.25;2.05;;;;;;;6.65;61.90;99476.34;1780589;80;22284;-62
2021/05/04 00:07:04;;;;;;;3.05;2.10;;;;;;;6.61;62.08;99471.98;1753710;80;22007;-64
2021/05/04 00:09:32;;;;;;;5.53;2.30;;;;;;;6.58;62.20;99475.91;1779804;80;21101;-63
2021/05/04 00:12:00;;;;;;;2.70;2.20;;;;;;;6.57;62.34;99470.27;1779841;80;21074;-63
2021/05/04 00:14:28;;;;;;;4.12;2.08;;;;;;;6.53;62.58;99477.11;1779789;79;21185;-64
2021/05/04 00:16:56;;;;;;;2.35;2.15;;;;;;;6.51;62.74;99485.90;1754152;80;21137;-64
2021/05/04 00:19:24;;;;;;;2.12;1.95;;;;;;;6.50;62.65;99462.89;1754193;80;21157;-63
2021/05/04 00:21:52;;;;;;;2.58;2.37;;;;;;;6.49;62.84;99487.16;1761338;81;21592;-63
2021/05/04 00:24:19;;;;;;;2.62;2.42;;;;;;;6.47;62.98;99475.37;1725500;82;21031;-64
2021/05/04 00:26:48;;;;;;;2.33;2.12;;;;;;;6.47;62.92;99478.56;1748901;82;21160;-63
2021/05/04 00:29:16;;;;;;;4.20;2.40;;;;;;;6.45;63.01;99477.97;1779851;80;21106;-62
2021/05/04 00:31:44;;;;;;;3.20;2.42;;;;;;;6.43;63.17;99485.38;1754171;80;22007;-62
2021/05/04 00:34:11;;;;;;;2.00;1.90;;;;;;;6.42;63.31;99497.13;1754144;80;21145;-62
2021/05/04 00:36:40;;;;;;;2.72;1.90;;;;;;;6.40;63.34;99486.67;1779932;80;21504;-61
2021/05/04 00:39:08;;;;;;;3.42;2.52;;;;;;;6.41;63.41;99488.82;1779843;80;21122;-62
2021/05/04 00:41:36;;;;;;;2.05;1.90;;;;;;;6.39;63.53;99486.37;1729602;80;21602;-61
2021/05/04 00:44:07;;;;;;;3.87;2.60;;;;;;;6.37;63.80;99485.80;1754197;80;21106;-61
2021/05/04 00:46:35;;;;;;;3.72;2.37;;;;;;;6.34;63.93;99482.23;1754174;80;21125;-62
2021/05/04 00:49:03;;;;;;;2.33;1.70;;;;;;;6.33;64.11;99499.28;1754247;80;21133;-62
2021/05/04 00:51:31;;;;;;;2.12;1.92;;;;;;;6.33;64.16;99477.92;1761373;81;21124;-62
2021/05/04 00:53:59;;;;;;;4.42;3.90;;;;;;;6.32;64.32;99495.53;1780038;80;21113;-62
2021/05/04 00:56:27;;;;;;;2.90;2.70;;;;;;;6.30;64.41;99497.59;1736010;81;21217;-61
2021/05/04 00:58:57;;;;;;;2.52;2.33;;;;;;;6.27;64.68;99494.88;1731259;82;21544;-62
2021/05/04 01:01:25;;;;;;;3.15;2.40;;;;;;;6.27;64.77;99483.37;1780118;80;21134;-62
2021/05/04 01:03:53;;;;;;;4.35;2.85;;;;;;;6.24;64.96;99492.64;1755581;81;21094;-61
2021/05/04 01:06:22;;;;;;;2.47;2.27;;;;;;;6.24;65.09;99481.14;1720146;82;21139;-63
2021/05/04 01:08:50;;;;;;;3.20;2.90;;;;;;;6.22;65.34;99486.73;1731649;82;22473;-63
2021/05/04 01:11:17;;;;;;;2.55;2.35;;;;;;;6.22;65.37;99500.08;1784361;80;21144;-63
2021/05/04 01:13:51;;;;;;;2.90;2.70;;;;;;;6.22;65.52;99491.25;1784366;79;21602;-62
2021/05/04 01:16:19;;;;;;;3.05;2.52;;;;;;;6.19;65.73;99491.16;1784430;80;21097;-62
2021/05/04 01:18:49;;;;;;;3.95;3.02;;;;;;;6.16;65.79;99480.95;1754321;80;21110;-62
2021/05/04 01:21:17;;;;;;;3.45;2.50;;;;;;;6.16;65.91;99484.14;1784453;80;21278;-64
2021/05/04 01:23:46;;;;;;;3.42;2.60;;;;;;;6.15;65.97;99489.99;1754189;80;21042;-62
2021/05/04 01:26:13;;;;;;;2.47;2.27;;;;;;;6.14;66.16;99485.69;1784307;80;21173;-63
2021/05/04 01:28:43;;;;;;;1.85;1.75;;;;;;;6.12;66.21;99485.11;1784351;80;21161;-62
2021/05/04 01:31:10;;;;;;;2.58;2.37;;;;;;;6.11;66.32;99481.63;1784405;80;21163;-62
2021/05/04 01:33:38;;;;;;;3.58;3.27;;;;;;;6.12;66.37;99491.27;1754283;80;21141;-63
2021/05/04 01:36:06;;;;;;;2.83;2.55;;;;;;;6.11;66.44;99503.50;1784383;80;20991;-62
2021/05/04 01:38:34;;;;;;;3.50;2.33;;;;;;;6.11;66.48;99485.63;1784418;80;21010;-62
2021/05/04 01:41:01;;;;;;;2.25;2.08;;;;;;;6.10;66.52;99493.34;1754379;80;21149;-64
2021/05/04 01:43:30;;;;;;;3.22;2.95;;;;;;;6.09;66.54;99490.37;1784407;80;21106;-62
2021/05/04 01:45:58;;;;;;;2.75;2.52;;;;;;;6.09;66.53;99482.36;1784339;80;22295;-62
2021/05/04 01:48:26;;;;;;;3.35;2.72;;;;;;;6.07;66.63;99487.12;1784430;80;21117;-62
2021/05/04 01:50:56;;;;;;;2.70;2.50;;;;;;;6.06;66.63;99497.50;1784441;80;21117;-62
2021/05/04 01:53:23;;;;;;;3.62;2.80;;;;;;;6.02;66.91;99484.83;1784373;80;21113;-62
2021/05/04 01:55:51;;;;;;;2.35;2.15;;;;;;;6.02;66.89;99498.18;1754270;80;21077;-62
2021/05/04 01:58:19;;;;;;;2.65;2.45;;;;;;;6.01;66.93;99484.02;1784361;80;22608;-62
2021/05/04 02:00:47;;;;;;;2.98;2.77;;;;;;;6.01;67.05;99491.20;1784304;80;21116;-61
2021/05/04 02:03:16;;;;;;;5.92;2.67;;;;;;;6.01;67.08;99488.02;1783791;80;21193;-62
2021/05/04 02:05:45;;;;;;;2.72;2.22;;;;;;;6.01;67.20;99489.87;1754284;80;21169;-62
2021/05/04 02:08:14;;;;;;;2.90;2.67;;;;;;;6.01;67.22;99493.88;1779991;80;21137;-63
2021/05/04 02:10:43;;;;;;;6.00;3.70;;;;;;;6.00;67.34;99510.92;1780095;80;22485;-62
2021/05/04 02:13:10;;;;;;;3.47;2.65;;;;;;;5.98;67.46;99506.34;1753949;80;21034;-63
2021/05/04 02:15:38;;;;;;;3.60;2.72;;;;;;;6.00;67.52;99513.59;1779921;80;21555;-62
2021/05/04 02:18:07;;;;;;;4.87;2.90;;;;;;;5.99;67.66;99511.47;1761276;81;21142;-61
2021/05/04 02:20:36;;;;;;;5.22;2.87;;;;;;;5.98;67.74;99510.35;1780060;80;21090;-61
2021/05/04 02:23:04;;;;;;;3.45;3.15;;;;;;;6.00;67.70;99510.92;1779897;80;22528;-65
2021/05/04 02:25:31;;;;;;;3.25;2.80;;;;;;;6.00;67.68;99501.58;1779917;80;21200;-63
2021/05/04 02:27:59;;;;;;;5.60;3.12;;;;;;;6.01;67.82;99520.05;1754147;80;21141;-63
2021/05/04 02:30:41;;;;;;;3.50;3.00;;;;;;;6.03;67.87;99508.64;1783979;79;20992;-62
2021/05/04 02:33:09;;;;;;;3.58;3.27;;;;;;;6.05;67.91;99501.73;1770321;81;21143;-62
2021/05/04 02:35:37;;;;;;;4.20;3.17;;;;;;;6.07;67.94;99496.98;1784014;80;22571;-63
2021/05/04 02:38:05;;;;;;;3.55;3.22;;;;;;;6.06;68.04;99502.03;1759515;80;21664;-64
2021/05/04 02:40:32;;;;;;;3.35;3.05;;;;;;;6.05;68.20;99506.55;1784036;80;21158;-63
2021/05/04 02:43:00;;;;;;;5.62;4.15;;;;;;;6.04;68.26;99501.45;1759514;80;21218;-63
2021/05/04 02:45:28;;;;;;;4.35;3.45;;;;;;;6.02;68.51;99499.00;1784055;80;21167;-62
2021/05/04 02:47:56;;;;;;;3.50;3.20;;;;;;;6.02;68.55;99499.52;1783993;80;22306;-62
2021/05/04 02:50:24;;;;;;;3.60;3.30;;;;;;;5.98;68.82;99535.71;1783952;80;21155;-62
2021/05/04 02:52:53;;;;;;;4.35;3.95;;;;;;;5.96;68.92;99517.75;1783976;80;21072;-62
2021/05/04 02:55:22;;;;;;;5.03;4.00;;;;;;;5.94;69.12;99510.51;1784020;80;21145;-60
2021/05/04 02:57:50;;;;;;;5.70;3.45;;;;;;;5.90;69.32;99502.11;1759513;80;21147;-62
2021/05/04 03:00:21;;;;;;;5.72;3.42;;;;;;;5.89;69.61;99499.69;1784081;80;22662;-61
2021/05/04 03:02:50;;;;;;;5.33;4.37;;;;;;;5.90;69.76;99503.45;1783999;80;21008;-63
2021/05/04 03:05:17;;;;;;;4.05;3.37;;;;;;;5.90;69.92;99498.11;1783977;80;21127;-64
2021/05/04 03:07:46;;;;;;;4.75;3.85;;;;;;;5.91;70.01;99510.42;1783978;80;21201;-62
2021/05/04 03:10:16;;;;;;;5.87;4.20;;;;;;;5.92;69.99;99506.72;1759621;80;21218;-63
2021/05/04 03:12:46;;;;;;;6.47;4.67;;;;;;;5.93;70.01;99517.70;1766087;80;22277;-63
2021/05/04 03:15:15;;;;;;;4.37;3.98;;;;;;;5.92;70.07;99506.72;1752950;81;21182;-63
2021/05/04 03:17:43;;;;;;;5.35;3.83;;;;;;;5.93;70.24;99514.21;1753020;81;21007;-62
2021/05/04 03:20:13;;;;;;;4.22;3.83;;;;;;;5.91;70.39;99521.61;1752976;81;21615;-61
2021/05/04 03:22:41;;;;;;;6.25;3.55;;;;;;;5.91;70.54;99523.77;1752997;81;21102;-62
2021/05/04 03:25:11;;;;;;;5.22;3.35;;;;;;;5.91;70.63;99525.62;1752979;81;22831;-61
2021/05/04 03:27:39;;;;;;;4.00;3.55;;;;;;;5.93;70.76;99540.39;1729330;81;21186;-62
2021/05/04 03:30:10;;;;;;;5.05;4.30;;;;;;;5.97;70.76;99524.73;1742025;81;21163;-63
2021/05/04 03:32:40;;;;;;;4.35;3.55;;;;;;;6.00;70.75;99542.44;1713033;82;21056;-63
2021/05/04 03:35:09;;;;;;;5.15;3.67;;;;;;;6.00;70.80;99529.09;1736341;82;21150;-62
2021/05/04 03:37:37;;;;;;;5.25;4.70;;;;;;;6.01;70.78;99537.41;1736339;82;22353;-62
2021/05/04 03:40:06;;;;;;;4.75;3.70;;;;;;;6.04;70.87;99542.83;1713013;82;21166;-62
2021/05/04 03:42:34;;;;;;;4.42;4.03;;;;;;;6.02;70.93;99563.58;1732801;81;21216;-62
2021/05/04 03:45:03;;;;;;;4.10;3.70;;;;;;;6.03;70.92;99555.88;1736164;82;21175;-62
2021/05/04 03:47:36;;;;;;;5.75;5.10;;;;;;;6.04;70.92;99554.30;1736296;82;21020;-62
2021/05/04 03:50:06;;;;;;;4.75;4.25;;;;;;;6.05;71.00;99541.25;1713120;82;21587;-62
2021/05/04 03:52:34;;;;;;;5.55;4.42;;;;;;;6.10;70.92;99539.24;1736282;82;21616;-61
2021/05/04 03:55:01;;;;;;;6.22;4.62;;;;;;;6.17;70.77;99539.17;1713041;82;21668;-61
2021/05/04 03:57:29;;;;;;;5.42;3.55;;;;;;;6.23;70.70;99549.78;1736274;82;21151;-62
2021/05/04 03:59:58;;;;;;;6.80;3.92;;;;;;;6.28;70.49;99550.44;1736261;82;21114;-63
2021/05/04 04:02:25;;;;;;;4.78;4.37;;;;;;;6.32;70.35;99545.76;1736330;82;22030;-64
2021/05/04 04:04:53;;;;;;;7.03;3.60;;;;;;;6.37;70.14;99561.11;1736182;82;21148;-61
2021/05/04 04:07:21;;;;;;;4.67;4.20;;;;;;;6.41;70.02;99549.73;1712934;82;21206;-63
2021/05/04 04:09:50;;;;;;;4.15;3.80;;;;;;;6.45;69.95;99539.41;1736082;82;21119;-62
2021/05/04 04:12:18;;;;;;;4.65;4.15;;;;;;;6.49;69.90;99544.59;1754421;81;21176;-63
2021/05/04 04:14:47;;;;;;;4.78;4.12;;;;;;;6.51;69.78;99557.21;1736349;82;22781;-63
2021/05/04 04:17:15;;;;;;;5.40;4.40;;;;;;;6.54;69.66;99554.08;1754449;81;21209;-63
2021/05/04 04:19:44;;;;;;;4.12;3.72;;;;;;;6.56;69.53;99564.03;1736256;82;21363;-63
2021/05/04 04:22:12;;;;;;;4.60;4.15;;;;;;;6.62;69.42;99554.30;1712925;82;21131;-62
2021/05/04 04:24:40;;;;;;;4.45;4.03;;;;;;;6.68;69.34;99547.50;1754640;81;21129;-62
2021/05/04 04:27:10;;;;;;;6.00;4.60;;;;;;;6.76;69.11;99542.37;1707079;84;22519;-61
2021/05/04 04:29:39;;;;;;;5.22;4.12;;;;;;;6.80;68.95;99550.22;1754590;81;21216;-62
2021/05/04 04:32:07;;;;;;;4.12;3.80;;;;;;;6.84;68.76;99546.86;1733015;81;21157;-62
2021/05/04 04:34:36;;;;;;;3.80;3.50;;;;;;;6.90;68.52;99553.97;1754686;81;21103;-62
2021/05/04 04:37:04;;;;;;;5.60;4.78;;;;;;;6.92;68.43;99552.37;1754631;81;21169;-63
2021/05/04 04:39:32;;;;;;;6.28;4.62;;;;;;;6.93;68.43;99560.18;1754711;81;22390;-62
2021/05/04 04:42:02;;;;;;;6.05;5.17;;;;;;;6.95;68.37;99551.94;1754384;81;21113;-63
2021/05/04 04:44:29;;;;;;;6.20;5.15;;;;;;;6.96;68.39;99576.27;1754659;81;21007;-63
2021/05/04 04:46:59;;;;;;;6.30;4.25;;;;;;;6.95;68.42;99549.27;1754644;81;21149;-65
2021/05/04 04:49:27;;;;;;;6.97;5.33;;;;;;;6.96;68.48;99547.68;1732975;81;21152;-63
2021/05/04 04:51:55;;;;;;;6.80;5.90;;;;;;;6.96;68.41;99550.36;1754743;81;22819;-62
2021/05/04 04:54:22;;;;;;;5.67;4.65;;;;;;;6.95;68.55;99549.27;1754646;81;21574;-64
2021/05/04 04:56:50;;;;;;;8.95;4.60;;;;;;;6.95;68.63;99571.45;1754726;81;21125;-63
2021/05/04 04:59:18;;;;;;;7.20;4.97;;;;;;;7.00;68.72;99559.54;1754679;81;21328;-63
2021/05/04 05:01:46;;;;;;;4.83;4.40;;;;;;;7.06;68.67;99565.83;1754700;81;21145;-63
2021/05/04 05:04:14;;;;;;;9.23;5.92;;;;;;;7.13;68.48;99565.74;1732857;81;21137;-63
2021/05/04 05:06:44;;;;;;;4.65;4.25;;;;;;;7.18;68.35;99561.34;1754661;81;21141;-64
2021/05/04 05:09:12;;;;;;;6.30;5.70;;;;;;;7.24;68.31;99568.96;1754664;81;21109;-63
2021/05/04 05:11:41;;;;;;;5.62;4.62;;;;;;;7.30;68.29;99589.42;1754709;81;21034;-66
2021/05/04 05:14:09;;;;;;;8.65;5.15;;;;;;;7.34;67.95;99569.99;1754713;81;21110;-63
2021/05/04 05:16:36;;;;;;;5.60;5.08;;;;;;;7.35;67.83;99607.75;1754694;81;22574;-62
2021/05/04 05:19:05;;;;;;;6.53;4.83;;;;;;;7.35;67.86;99621.64;1754663;81;21161;-63
2021/05/04 05:21:35;;;;;;;6.70;5.85;;;;;;;7.35;67.86;99614.95;1733027;81;21571;-61
2021/05/04 05:24:06;;;;;;;5.55;5.05;;;;;;;7.35;67.93;99582.33;1754609;81;21594;-62
2021/05/04 05:26:33;;;;;;;7.05;4.70;;;;;;;7.40;67.99;99586.98;1732868;81;21172;-62
2021/05/04 05:29:02;;;;;;;5.83;5.28;;;;;;;7.44;67.99;99582.28;1733213;81;22697;-63
2021/05/04 05:31:32;;;;;;;5.95;5.15;;;;;;;7.53;67.90;99592.66;1750729;81;21177;-62
2021/05/04 05:34:00;;;;;;;6.83;5.72;;;;;;;7.57;67.61;99589.28;1750706;81;21046;-63
2021/05/04 05:36:28;;;;;;;5.65;4.55;;;;;;;7.62;67.40;99598.77;1737699;82;21119;-63
2021/05/04 05:38:55;;;;;;;7.53;5.35;;;;;;;7.66;67.29;99593.75;1750585;82;21180;-64
2021/05/04 05:41:24;;;;;;;7.78;5.60;;;;;;;7.71;67.24;99597.89;1750755;82;21368;-63
2021/05/04 05:43:52;;;;;;;8.15;5.25;;;;;;;7.74;67.20;99588.86;1724950;82;21616;-66
2021/05/04 05:46:22;;;;;;;5.00;4.50;;;;;;;7.79;67.25;99584.95;1724944;82;21032;-65
2021/05/04 05:48:51;;;;;;;5.60;5.10;;;;;;;7.85;66.99;99610.80;1724897;82;21170;-65
2021/05/04 05:51:19;;;;;;;6.40;5.65;;;;;;;7.88;66.39;99598.80;1750676;82;21190;-65
2021/05/04 05:53:46;;;;;;;7.55;4.92;;;;;;;7.89;66.44;99591.88;1750607;82;22599;-67
2021/05/04 05:56:14;;;;;;;7.75;4.70;;;;;;;7.91;66.63;99615.75;1725082;82;21158;-65
2021/05/04 05:58:41;;;;;;;5.95;5.30;;;;;;;7.94;66.29;99601.88;1750489;82;21107;-67
2021/05/04 06:01:10;;;;;;;6.17;5.58;;;;;;;7.97;66.06;99601.92;1750628;82;21190;-65
2021/05/04 06:03:38;;;;;;;7.97;6.70;;;;;;;8.01;66.07;99597.75;1750709;81;21106;-64
2021/05/04 06:06:07;;;;;;;10.60;5.53;;;;;;;8.05;65.79;99610.95;1750658;81;22601;-65
2021/05/04 06:08:34;;;;;;;5.70;5.15;;;;;;;8.07;65.78;99605.64;1750570;82;21142;-66
2021/05/04 06:11:04;;;;;;;5.87;5.25;;;;;;;8.12;65.22;99610.29;1750570;80;21138;-67
2021/05/04 06:13:33;;;;;;;4.87;4.47;;;;;;;8.17;65.07;99603.17;1750664;81;21629;-66
2021/05/04 06:16:03;;;;;;;6.17;5.58;;;;;;;8.25;65.03;99626.09;1724985;82;21548;-67
2021/05/04 06:18:31;;;;;;;5.92;5.25;;;;;;;8.28;64.84;99612.25;1750571;82;21263;-65
2021/05/04 06:20:59;;;;;;;4.78;4.37;;;;;;;8.33;64.76;99613.72;1750707;82;21587;-66
2021/05/04 06:23:27;;;;;;;5.42;4.87;;;;;;;8.39;64.69;99607.42;1750287;82;21153;-65
2021/05/04 06:25:54;;;;;;;5.95;5.33;;;;;;;8.43;64.56;99607.76;1737539;82;21174;-63
2021/05/04 06:28:22;;;;;;;4.70;4.30;;;;;;;8.46;64.59;99603.25;1750524;82;21138;-63
2021/05/04 06:30:49;;;;;;;5.97;5.30;;;;;;;8.50;64.33;99615.94;1750840;82;22523;-66
2021/05/04 06:33:17;;;;;;;5.85;5.05;;;;;;;8.52;64.12;99597.77;1751076;82;21208;-65
2021/05/04 06:35:48;;;;;;;5.55;4.62;;;;;;;8.56;64.03;99593.55;1751159;82;21194;-63
2021/05/04 06:38:17;;;;;;;4.33;3.92;;;;;;;8.63;63.70;99594.75;1751070;82;21220;-64
2021/05/04 06:40:47;;;;;;;7.55;4.65;;;;;;;8.70;63.36;99608.81;1751148;81;21170;-65
2021/05/04 06:43:14;;;;;;;6.05;4.85;;;;;;;8.71;62.40;99631.90;1727606;82;22145;-63
2021/05/04 06:45:42;;;;;;;5.10;4.45;;;;;;;8.73;62.53;99603.78;1751099;82;21170;-65
2021/05/04 06:48:11;;;;;;;6.55;5.95;;;;;;;8.76;62.39;99610.55;1721868;82;21562;-66
2021/05/04 06:50:39;;;;;;;5.70;4.92;;;;;;;8.80;61.91;99609.53;1706909;84;21196;-66
2021/05/04 06:53:07;;;;;;;5.85;4.90;;;;;;;8.85;62.16;99612.31;1706878;84;21184;-65
2021/05/04 06:55:36;;;;;;;4.83;4.37;;;;;;;8.93;61.96;99645.44;1707010;83;21202;-65
2021/05/04 06:58:04;;;;;;;8.30;5.08;;;;;;;8.98;60.63;99636.96;1706843;83;21172;-65
2021/05/04 07:00:32;;;;;;;8.83;4.50;;;;;;;8.95;60.48;99613.31;1706994;84;21107;-65
2021/05/04 07:03:03;;;;;;;6.87;6.30;;;;;;;8.96;60.69;99645.80;1694421;84;21042;-63
2021/05/04 07:05:32;;;;;;;7.85;4.58;;;;;;;8.98;60.73;99614.69;1706956;84;21125;-65
2021/05/04 07:07:59;;;;;;;7.15;4.58;;;;;;;8.99;59.95;99619.00;1706890;84;21397;-63
2021/05/04 07:10:29;;;;;;;8.25;4.75;;;;;;;9.01;59.80;99622.27;1706734;84;21150;-64
2021/05/04 07:12:58;;;;;;;5.00;4.40;;;;;;;9.05;59.98;99634.14;1706880;83;21162;-64
2021/05/04 07:15:26;;;;;;;5.10;4.50;;;;;;;9.10;60.04;99627.53;1694622;84;21120;-64
2021/05/04 07:17:55;;;;;;;7.30;4.87;;;;;;;9.15;59.97;99645.05;1706890;83;21074;-64
2021/05/04 07:20:23;;;;;;;5.42;4.90;;;;;;;9.20;60.02;99614.30;1706820;84;22630;-64
2021/05/04 07:22:55;;;;;;;5.80;4.60;;;;;;;9.29;59.78;99641.01;1706808;84;21120;-63
2021/05/04 07:25:23;;;;;;;5.97;4.80;;;;;;;9.38;59.49;99616.73;1706938;84;21762;-67
2021/05/04 07:27:53;;;;;;;9.78;4.22;;;;;;;9.47;59.23;99623.84;1694416;84;21212;-64
2021/05/04 07:30:21;;;;;;;6.78;5.20;;;;;;;9.57;58.84;99619.98;1709142;81;21673;-66
2021/05/04 07:32:49;;;;;;;11.93;4.70;;;;;;;9.60;57.96;99630.22;1717754;83;22776;-65
2021/05/04 07:35:18;;;;;;;11.80;3.80;;;;;;;9.60;57.75;99665.13;1675858;83;21180;-65
2021/05/04 07:37:45;;;;;;;5.67;4.62;;;;;;;9.56;57.36;99668.84;1717549;83;21530;-63
2021/05/04 07:40:13;;;;;;;5.28;4.45;;;;;;;9.52;57.21;99648.91;1717572;83;21224;-65
2021/05/04 07:42:42;;;;;;;4.50;3.62;;;;;;;9.50;57.80;99634.09;1717693;83;21117;-64
2021/05/04 07:45:11;;;;;;;6.05;5.35;;;;;;;9.54;57.96;99642.75;1717497;83;21449;-64
2021/05/04 07:47:39;;;;;;;4.90;4.20;;;;;;;9.57;57.91;99614.61;1698953;83;21038;-63
2021/05/04 07:50:11;;;;;;;5.25;4.25;;;;;;;9.62;57.45;99634.31;1717517;83;21161;-65
2021/05/04 07:52:38;;;;;;;5.50;3.98;;;;;;;9.67;57.18;99627.38;1717599;83;21106;-62
2021/05/04 07:55:08;;;;;;;5.55;4.00;;;;;;;9.71;57.34;99626.65;1717538;83;21205;-63
2021/05/04 07:57:36;;;;;;;5.75;5.00;;;;;;;9.78;56.98;99629.17;1717587;83;21202;-64
2021/05/04 08:00:06;;;;;;;5.30;4.25;;;;;;;9.79;56.93;99638.31;1717536;83;21165;-64
2021/05/04 08:02:36;;;;;;;4.42;4.03;;;;;;;9.77;56.41;99660.59;1717257;83;21141;-64
2021/05/04 08:05:05;;;;;;;5.17;3.92;;;;;;;9.72;56.71;99624.78;1717494;83;22037;-63
2021/05/04 08:07:33;;;;;;;4.62;3.10;;;;;;;9.67;56.73;99631.41;1717660;83;21105;-62
2021/05/04 08:10:01;;;;;;;4.25;3.70;;;;;;;9.70;55.25;99645.16;1699179;83;21217;-63
2021/05/04 08:12:29;;;;;;;4.72;3.80;;;;;;;9.78;54.69;99636.70;1717487;83;21149;-63
2021/05/04 08:14:57;;;;;;;4.12;3.72;;;;;;;9.81;54.92;99638.08;1717490;83;21043;-64
2021/05/04 08:17:28;;;;;;;5.28;4.33;;;;;;;9.83;54.81;99654.77;1717431;83;21385;-63
2021/05/04 08:20:03;;;;;;;6.00;3.87;;;;;;;9.84;55.17;99669.80;1717583;83;21164;-62
2021/05/04 08:22:28;;;;;;;4.80;3.35;;;;;;;9.82;54.97;99631.12;1717270;82;22603;-63
2021/05/04 08:24:56;;;;;;;5.65;3.65;;;;;;;9.78;55.30;99642.61;1698829;83;21038;-63
2021/05/04 08:27:25;;;;;;;3.75;3.08;;;;;;;9.73;55.63;99649.23;1717485;83;21201;-64
2021/05/04 08:29:53;;;;;;;3.80;3.40;;;;;;;9.71;56.06;99654.84;1717414;83;21153;-63
2021/05/04 08:32:20;;;;;;;4.85;4.03;;;;;;;9.73;55.75;99644.69;1698365;83;21177;-64
2021/05/04 08:34:48;;;;;;;3.85;3.30;;;;;;;9.76;55.59;99660.83;1708669;84;21281;-63
2021/05/04 08:37:16;;;;;;;3.55;3.25;;;;;;;9.74;55.75;99648.97;1708504;84;21151;-64
2021/05/04 08:39:46;;;;;;;3.30;3.02;;;;;;;9.75;55.19;99670.75;1684109;84;21211;-63
2021/05/04 08:42:14;;;;;;;3.47;2.87;;;;;;;9.77;54.64;99661.93;1708429;84;21034;-64
2021/05/04 08:44:45;;;;;;;4.47;4.08;;;;;;;9.78;54.01;99654.16;1684039;84;21196;-64
2021/05/04 08:47:14;;;;;;;9.50;4.03;;;;;;;9.85;54.06;99644.05;1708595;84;22677;-62
2021/05/04 08:49:42;;;;;;;6.70;3.30;;;;;;;9.93;53.29;99651.68;1708663;84;21649;-63
2021/05/04 08:52:10;;;;;;;3.47;3.17;;;;;;;9.98;53.44;99682.66;1708577;84;21134;-62
2021/05/04 08:54:39;;;;;;;3.42;3.12;;;;;;;9.93;53.15;99674.52;1708595;84;21120;-63
2021/05/04 08:57:06;;;;;;;3.58;3.12;;;;;;;9.81;53.83;99685.89;1708693;84;21213;-63
2021/05/04 08:59:34;;;;;;;3.30;3.00;;;;;;;9.71;54.21;99670.95;1708577;84;21269;-63
2021/05/04 09:02:03;;;;;;;2.80;2.60;;;;;;;9.66;54.28;99689.67;1708594;82;21183;-65
2021/05/04 09:04:38;;;;;;;3.58;3.27;;;;;;;9.61;54.50;99683.69;1708577;84;21155;-66
2021/05/04 09:07:19;;;;;;;4.25;3.17;;;;;;;9.59;54.67;99696.53;1684069;84;21120;-62
2021/05/04 09:10:39;;;;;;;4.50;3.70;;;;;;;9.54;55.02;99680.89;1683782;84;21167;-62
2021/05/04 09:13:06;;;;;;;;;;;;;;;9.54;55.42;99684.92;1710647;84;22456;-65
2021/05/04 09:18:39;;;;;;;5.72;2.77;;;;;;;9.48;55.84;99686.70;1684247;84;21786;-61
2021/05/04 09:21:08;;;;;;;2.92;2.72;;;;;;;9.42;56.02;99676.92;1684096;84;21135;-64
2021/05/04 09:23:40;;;;;;;3.87;3.45;;;;;;;9.37;56.19;99684.89;1708759;84;21160;-65
2021/05/04 09:26:22;;;;;;;7.33;3.80;;;;;;;9.32;56.73;99692.84;1708961;84;21268;-63
2021/05/04 09:28:50;;;;;;;6.35;4.40;;;;;;;9.30;57.77;99671.34;1708807;84;21195;-62
2021/05/04 09:31:25;;;;;;;4.47;3.30;;;;;;;9.30;57.50;99677.53;1684150;84;21163;-63
2021/05/04 09:33:55;;;;;;;3.45;3.15;;;;;;;9.32;57.14;99688.82;1708717;84;21225;-63
2021/05/04 09:36:47;;;;;;;4.60;3.98;;;;;;;9.35;57.27;99670.09;1708710;82;21156;-65
2021/05/04 09:39:29;;;;;;;3.35;3.05;;;;;;;9.43;57.33;99664.31;1684647;84;21170;-62
2021/05/04 09:41:59;;;;;;;3.60;3.30;;;;;;;9.54;57.13;99669.59;1684484;84;21065;-63
2021/05/04 09:44:43;;;;;;;3.20;2.90;;;;;;;9.62;56.54;99671.08;1708633;84;21159;-62
2021/05/04 09:47:14;;;;;;;3.40;3.10;;;;;;;9.68;56.18;99665.27;1708620;84;21123;-65
2021/05/04 09:49:43;;;;;;;3.50;3.20;;;;;;;9.74;56.02;99670.45;1708685;84;21647;-63
2021/05/04 09:52:41;;;;;;;3.35;3.05;;;;;;;9.85;55.95;99668.75;1708644;84;21188;-65
2021/05/04 09:55:11;;;;;;;3.02;2.70;;;;;;;9.93;55.68;99705.41;1708537;84;21128;-62
2021/05/04 09:57:50;;;;;;;2.98;2.67;;;;;;;10.02;54.66;99672.25;1708709;84;21160;-64
2021/05/04 10:00:24;;;;;;;3.40;3.08;;;;;;;10.07;53.91;99657.55;1708831;84;21045;-63
2021/05/04 10:02:52;;;;;;;3.17;2.87;;;;;;;10.14;54.37;99651.45;1684571;84;21752;-63
2021/05/04 10:05:20;;;;;;;3.45;3.10;;;;;;;10.25;53.80;99651.09;1708643;84;21323;-64
2021/05/04 10:07:48;;;;;;;3.47;3.17;;;;;;;10.30;52.66;99651.16;1684217;84;21243;-62
2021/05/04 10:10:17;;;;;;;2.83;2.55;;;;;;;10.33;52.57;99699.05;1708587;84;21187;-63
2021/05/04 10:12:45;;;;;;;5.92;2.60;;;;;;;10.38;52.15;99646.69;1708688;84;21148;-64
2021/05/04 10:15:15;;;;;;;8.35;3.08;;;;;;;10.42;50.62;99680.89;1708777;84;21132;-64
2021/05/04 10:17:43;;;;;;;4.25;3.12;;;;;;;10.50;51.11;99637.98;1708765;84;22116;-63
2021/05/04 10:20:18;;;;;;;3.80;3.00;;;;;;;10.56;51.22;99642.34;1708729;84;21613;-63
2021/05/04 10:22:47;;;;;;;3.05;2.85;;;;;;;10.69;51.29;99643.33;1708741;84;21566;-62
2021/05/04 10:25:19;;;;;;;4.03;3.62;;;;;;;10.78;50.02;99668.71;1708376;84;21206;-62
2021/05/04 10:27:55;;;;;;;3.15;2.80;;;;;;;10.90;49.27;99643.81;1708834;84;21606;-63
2021/05/04 10:30:23;;;;;;;2.75;2.55;;;;;;;10.96;48.31;99643.87;1684271;84;21160;-63
2021/05/04 10:32:55;;;;;;;3.10;2.40;;;;;;;10.97;48.52;99636.08;1708475;83;21218;-64
2021/05/04 10:35:34;;;;;;;2.37;2.17;;;;;;;10.99;48.67;99644.16;1708749;84;21585;-63
2021/05/04 10:38:05;;;;;;;2.58;2.37;;;;;;;11.04;48.37;99659.55;1708734;84;21189;-64
2021/05/04 10:40:39;;;;;;;2.83;2.62;;;;;;;11.02;48.89;99669.77;1708766;84;21576;-62
2021/05/04 10:43:29;;;;;;;2.62;2.42;;;;;;;11.05;48.87;99680.02;1705602;84;21363;-64
2021/05/04 10:45:58;;;;;;;2.25;2.10;;;;;;;11.10;48.16;99644.55;1684102;84;21212;-61
2021/05/04 10:48:41;;;;;;;4.92;3.40;;;;;;;11.17;48.31;99649.22;1708658;84;21029;-63
2021/05/04 10:51:15;;;;;;;2.17;2.02;;;;;;;11.23;48.43;99630.67;1684318;84;21186;-63
2021/05/04 10:54:01;;;;;;;3.10;2.55;;;;;;;11.34;48.13;99628.89;1708357;84;21183;-63
2021/05/04 10:56:45;;;;;;;2.72;2.52;;;;;;;11.41;47.21;99648.89;1708664;84;21376;-64
2021/05/04 10:59:23;;;;;;;2.05;1.85;;;;;;;11.42;46.70;99633.80;1683827;84;21235;-63
2021/05/04 11:02:18;;;;;;;3.30;2.30;;;;;;;11.43;46.74;99642.16;1706649;84;21145;-63
2021/05/04 11:04:48;;;;;;;2.90;2.08;;;;;;;11.46;46.78;99629.55;1708085;84;21762;-64
2021/05/04 11:07:58;;;;;;;3.50;2.17;;;;;;;11.52;46.43;99626.34;1708141;84;21637;-64
2021/05/04 11:10:27;;;;;;;7.85;1.90;;;;;;;11.56;46.04;99639.03;1708507;84;21420;-63
2021/05/04 11:12:55;;;;;;;3.72;2.35;;;;;;;11.54;45.99;99630.95;1684174;84;21207;-63
2021/05/04 11:15:26;;;;;;;2.52;2.33;;;;;;;11.50;46.40;99636.05;1708628;84;21128;-63
2021/05/04 11:17:54;;;;;;;3.65;2.62;;;;;;;11.46;46.90;99648.41;1684248;84;21581;-63
2021/05/04 11:20:38;;;;;;;2.37;1.98;;;;;;;11.42;47.15;99629.77;1684264;84;21633;-63
2021/05/04 11:23:07;;;;;;;3.90;2.77;;;;;;;11.42;47.19;99623.56;1708804;84;22106;-63
2021/05/04 11:25:42;;;;;;;1.80;1.70;;;;;;;11.51;46.92;99641.69;1708550;84;21203;-63
2021/05/04 11:28:10;;;;;;;3.98;2.27;;;;;;;11.64;46.58;99632.38;1708821;84;21187;-64
2021/05/04 11:30:42;;;;;;;4.25;2.12;;;;;;;11.82;45.71;99647.34;1708619;84;21160;-64
2021/05/04 11:33:30;;;;;;;;;;;;;;;11.92;44.35;99645.54;1724526;83;21570;-65
2021/05/04 11:35:58;;;;;;;2.00;1.90;;;;;;;12.02;43.82;99622.70;1707731;83;21365;-63
2021/05/04 11:38:27;;;;;;;3.00;2.25;;;;;;;12.16;44.28;99650.81;1707602;83;21154;-63
2021/05/04 11:40:55;;;;;;;3.17;2.05;;;;;;;12.27;44.73;99615.28;1723061;83;21630;-63
2021/05/04 11:43:23;;;;;;;5.50;2.15;;;;;;;12.42;43.93;99625.33;1706090;84;21108;-63
2021/05/04 11:45:51;;;;;;;2.50;2.30;;;;;;;12.55;44.55;99624.84;1722988;83;21113;-62
2021/05/04 11:48:19;;;;;;;3.58;2.00;;;;;;;12.70;43.33;99628.13;1706128;84;22504;-63
2021/05/04 11:50:50;;;;;;;2.02;1.92;;;;;;;12.77;42.47;99638.94;1722948;83;21022;-64
2021/05/04 11:53:19;;;;;;;5.33;2.08;;;;;;;12.74;42.40;99621.94;1705281;84;21158;-64
2021/05/04 11:55:53;;;;;;;2.02;1.70;;;;;;;12.76;42.29;99631.91;1705425;83;21621;-64
2021/05/04 11:58:26;;;;;;;3.60;2.60;;;;;;;12.77;41.98;99607.90;1706127;83;21201;-69